createdAt,value
2019-03-29T00:01:24.341Z,22.83
2019-03-29T00:04:12.561Z,24.97
2019-03-29T00:06:59.499Z,21.50
2019-03-29T00:09:49.768Z,22.10
2019-03-29T00:12:37.094Z,20.90
2019-03-29T00:15:24.331Z,20.17
2019-03-29T00:18:11.458Z,22.37
2019-03-29T00:20:58.567Z,25.30
2019-03-29T00:23:45.948Z,22.10
2019-03-29T00:26:33.457Z,22.33
2019-03-29T00:29:20.815Z,24.40
2019-03-29T00:32:07.909Z,23.53
2019-03-29T00:34:55.377Z,23.47
2019-03-29T00:37:52.732Z,23.10
2019-03-29T00:40:30.974Z,24.37
2019-03-29T00:43:19.141Z,24.20
2019-03-29T00:46:06.532Z,20.10
2019-03-29T00:48:53.577Z,26.03
2019-03-29T00:51:40.724Z,24.23
2019-03-29T00:54:28.361Z,22.87
2019-03-29T00:57:15.836Z,24.50
2019-03-29T01:00:02.998Z,27.90
2019-03-29T01:02:50.691Z,24.43
2019-03-29T01:05:37.721Z,27.90
2019-03-29T01:08:25.485Z,32.50
2019-03-29T01:11:12.489Z,23.67
2019-03-29T01:13:59.571Z,24.80
2019-03-29T01:16:47.185Z,28.63
2019-03-29T01:19:34.475Z,23.83
2019-03-29T01:22:21.722Z,24.23
2019-03-29T01:25:08.854Z,29.03
2019-03-29T01:27:56.356Z,30.23
2019-03-29T01:30:44.250Z,32.73
2019-03-29T01:33:31.540Z,29.67
2019-03-29T01:36:19.363Z,25.37
2019-03-29T01:39:06.683Z,29.50
2019-03-29T01:41:53.804Z,28.40
2019-03-29T01:44:41.612Z,28.87
2019-03-29T01:47:29.334Z,29.17
2019-03-29T01:50:17.103Z,27.60
2019-03-29T01:53:04.749Z,30.80
2019-03-29T01:55:51.420Z,34.27
2019-03-29T01:58:38.680Z,30.10
2019-03-29T02:01:26.259Z,25.53
2019-03-29T02:04:13.395Z,26.83
2019-03-29T02:07:00.188Z,26.53
2019-03-29T02:09:47.943Z,24.50
2019-03-29T02:12:35.292Z,26.03
2019-03-29T02:15:22.480Z,27.83
2019-03-29T02:18:09.827Z,32.03
2019-03-29T02:20:56.728Z,31.23
2019-03-29T02:23:43.902Z,30.00
2019-03-29T02:26:31.460Z,29.57
2019-03-29T02:29:18.804Z,26.77
2019-03-29T02:32:06.582Z,31.53
2019-03-29T02:34:53.882Z,30.83
2019-03-29T02:37:41.261Z,29.87
2019-03-29T02:40:28.149Z,30.10
2019-03-29T02:43:15.479Z,25.30
2019-03-29T02:46:02.300Z,30.80
2019-03-29T02:48:49.945Z,29.87
2019-03-29T02:51:36.956Z,31.17
2019-03-29T02:54:24.016Z,30.77
2019-03-29T02:57:11.330Z,27.80
2019-03-29T02:59:59.275Z,27.77
2019-03-29T03:02:46.304Z,31.63
2019-03-29T03:05:33.568Z,28.90
2019-03-29T03:08:21.304Z,27.17
2019-03-29T03:11:08.515Z,31.70
2019-03-29T03:13:55.641Z,30.17
2019-03-29T03:16:43.201Z,35.37
2019-03-29T03:19:30.214Z,32.13
2019-03-29T03:22:17.857Z,27.97
2019-03-29T03:25:05.687Z,28.97
2019-03-29T03:27:52.793Z,31.93
2019-03-29T03:30:39.968Z,29.40
2019-03-29T03:33:28.211Z,32.77
2019-03-29T03:36:15.012Z,28.10
2019-03-29T03:39:02.361Z,27.37
2019-03-29T03:41:49.292Z,25.43
2019-03-29T03:44:36.729Z,29.07
2019-03-29T03:47:23.649Z,30.93
2019-03-29T03:50:46.393Z,31.60
2019-03-29T03:53:33.736Z,29.50
2019-03-29T03:56:21.771Z,33.67
2019-03-29T03:59:09.642Z,30.57
2019-03-29T04:01:56.490Z,27.27
2019-03-29T04:04:44.095Z,33.23
2019-03-29T04:07:31.814Z,32.60
2019-03-29T04:10:19.038Z,32.67
2019-03-29T04:13:06.316Z,31.60
2019-03-29T04:15:54.117Z,31.87
2019-03-29T04:18:41.299Z,33.27
2019-03-29T04:21:28.578Z,32.00
2019-03-29T04:24:16.119Z,30.83
2019-03-29T04:27:03.053Z,33.03
2019-03-29T04:29:50.796Z,33.00
2019-03-29T04:32:38.031Z,29.33
2019-03-29T04:35:25.783Z,29.47
2019-03-29T04:38:13.255Z,30.67
2019-03-29T04:41:00.959Z,33.10
2019-03-29T04:43:48.009Z,29.57
2019-03-29T04:46:35.143Z,26.77
2019-03-29T04:49:21.992Z,31.10
2019-03-29T04:52:09.225Z,32.33
2019-03-29T04:54:56.734Z,31.93
2019-03-29T04:57:43.997Z,32.07
2019-03-29T05:00:31.289Z,32.43
2019-03-29T05:03:18.235Z,37.67
2019-03-29T05:06:05.056Z,32.43
2019-03-29T05:08:52.184Z,33.20
2019-03-29T05:11:39.310Z,35.97
2019-03-29T05:14:26.249Z,33.90
2019-03-29T05:17:13.689Z,28.63
2019-03-29T05:20:01.125Z,31.57
2019-03-29T05:22:48.143Z,30.33
2019-03-29T05:25:35.943Z,30.10
2019-03-29T05:28:23.183Z,34.17
2019-03-29T05:31:10.502Z,32.23
2019-03-29T05:33:58.715Z,32.60
2019-03-29T05:36:46.630Z,33.37
2019-03-29T05:39:34.164Z,29.70
2019-03-29T05:42:21.841Z,33.83
2019-03-29T05:45:09.071Z,25.80
2019-03-29T05:47:56.356Z,22.90
2019-03-29T05:50:43.422Z,24.67
2019-03-29T05:53:30.129Z,24.87
2019-03-29T05:56:17.195Z,24.50
2019-03-29T05:59:04.313Z,27.47
2019-03-29T06:01:51.649Z,23.97
2019-03-29T06:04:38.793Z,29.60
2019-03-29T06:07:26.017Z,25.70
2019-03-29T06:10:12.888Z,21.87
2019-03-29T06:12:59.880Z,26.30
2019-03-29T06:15:47.033Z,23.70
2019-03-29T06:18:34.149Z,21.87
2019-03-29T06:21:21.073Z,22.87
2019-03-29T06:24:09.862Z,19.03
2019-03-29T06:26:57.579Z,18.90
2019-03-29T06:29:44.809Z,20.40
2019-03-29T06:32:32.050Z,20.37
2019-03-29T06:35:19.341Z,19.17
2019-03-29T06:38:09.246Z,17.57
2019-03-29T06:41:02.627Z,18.87
2019-03-29T06:43:45.292Z,14.53
2019-03-29T06:46:32.976Z,18.47
2019-03-29T06:49:20.076Z,18.27
2019-03-29T06:52:07.165Z,15.40
2019-03-29T06:54:53.900Z,13.07
2019-03-29T06:57:41.952Z,14.07
2019-03-29T07:00:28.878Z,16.30
2019-03-29T07:03:15.900Z,13.80
2019-03-29T07:06:03.350Z,14.27
2019-03-29T07:08:50.175Z,13.40
2019-03-29T07:11:39.678Z,12.83
2019-03-29T07:14:26.747Z,13.87
2019-03-29T07:17:13.600Z,13.23
2019-03-29T07:20:00.503Z,14.03
2019-03-29T07:22:48.184Z,12.30
2019-03-29T07:25:35.611Z,12.07
2019-03-29T07:28:23.109Z,13.80
2019-03-29T07:31:10.260Z,13.40
2019-03-29T07:33:57.172Z,12.17
2019-03-29T07:36:43.847Z,15.97
2019-03-29T07:39:31.915Z,12.17
2019-03-29T07:42:19.020Z,12.50
2019-03-29T07:45:10.132Z,13.40
2019-03-29T07:47:58.465Z,12.63
2019-03-29T07:50:45.744Z,11.17
2019-03-29T07:53:33.618Z,12.23
2019-03-29T07:56:20.971Z,10.63
2019-03-29T07:59:08.257Z,13.33
2019-03-29T08:01:56.026Z,12.07
2019-03-29T08:04:46.408Z,12.90
2019-03-29T08:07:33.381Z,12.07
2019-03-29T08:10:26.131Z,11.37
2019-03-29T08:13:10.172Z,11.13
2019-03-29T08:15:57.992Z,11.13
2019-03-29T08:18:44.983Z,14.40
2019-03-29T08:21:32.284Z,11.77
2019-03-29T08:24:20.068Z,11.30
2019-03-29T08:27:07.286Z,12.30
2019-03-29T08:29:54.787Z,15.77
2019-03-29T08:32:41.676Z,13.70
2019-03-29T08:35:28.708Z,11.13
2019-03-29T08:38:16.212Z,12.60
2019-03-29T08:41:03.556Z,10.90
2019-03-29T08:43:50.474Z,13.77
2019-03-29T08:46:37.413Z,10.73
2019-03-29T08:49:24.625Z,11.17
2019-03-29T08:52:11.685Z,10.37
2019-03-29T08:54:58.980Z,17.93
2019-03-29T08:57:46.581Z,12.30
2019-03-29T09:00:34.283Z,12.00
2019-03-29T09:03:21.230Z,8.77
2019-03-29T09:06:08.441Z,10.80
2019-03-29T09:08:55.930Z,10.73
2019-03-29T09:11:43.931Z,13.50
2019-03-29T09:14:31.676Z,10.77
2019-03-29T09:17:20.080Z,11.23
2019-03-29T09:20:10.556Z,9.90
2019-03-29T09:22:57.791Z,10.67
2019-03-29T09:25:45.181Z,10.93
2019-03-29T09:28:33.062Z,13.83
2019-03-29T09:31:20.290Z,12.50
2019-03-29T09:34:07.334Z,11.20
2019-03-29T09:36:54.545Z,10.93
2019-03-29T09:39:41.503Z,11.23
2019-03-29T09:42:30.742Z,11.07
2019-03-29T09:45:19.187Z,11.40
2019-03-29T09:48:06.265Z,10.53
2019-03-29T09:50:52.971Z,13.73
2019-03-29T09:53:41.327Z,12.13
2019-03-29T09:56:38.489Z,17.37
2019-03-29T09:59:17.754Z,11.27
2019-03-29T10:02:05.408Z,16.97
2019-03-29T10:04:52.638Z,11.70
2019-03-29T10:07:39.759Z,10.97
2019-03-29T10:10:26.703Z,11.03
2019-03-29T10:13:13.843Z,12.07
2019-03-29T10:16:01.731Z,9.93
2019-03-29T10:18:50.753Z,11.03
2019-03-29T10:21:38.083Z,10.50
2019-03-29T10:24:25.217Z,10.47
2019-03-29T10:27:20.878Z,11.03
2019-03-29T10:30:08.604Z,10.37
2019-03-29T10:32:55.673Z,10.50
2019-03-29T10:35:52.221Z,10.23
2019-03-29T10:38:33.826Z,11.40
2019-03-29T10:41:22.612Z,9.87
2019-03-29T10:44:09.958Z,8.97
2019-03-29T10:46:57.366Z,9.30
2019-03-29T10:49:44.338Z,10.07
2019-03-29T10:52:31.276Z,9.20
2019-03-29T10:55:18.633Z,12.87
2019-03-29T10:58:09.478Z,11.40
2019-03-29T11:00:55.361Z,9.80
2019-03-29T11:03:42.378Z,9.97
2019-03-29T11:06:29.666Z,9.40
2019-03-29T11:09:17.351Z,10.13
2019-03-29T11:12:04.570Z,9.13
2019-03-29T11:14:51.873Z,9.70
2019-03-29T11:17:39.026Z,9.93
2019-03-29T11:20:26.425Z,7.97
2019-03-29T11:23:14.030Z,9.03
2019-03-29T11:26:01.390Z,10.10
2019-03-29T11:28:48.628Z,8.40
2019-03-29T11:31:35.560Z,9.10
2019-03-29T11:34:22.922Z,9.20
2019-03-29T11:37:09.693Z,10.17
2019-03-29T11:39:56.520Z,10.37
2019-03-29T11:42:44.497Z,9.83
2019-03-29T11:45:33.295Z,9.03
2019-03-29T11:48:20.732Z,10.07
2019-03-29T11:51:18.678Z,10.10
2019-03-29T11:53:56.875Z,10.10
2019-03-29T11:56:47.489Z,9.50
2019-03-29T11:59:33.366Z,9.10
2019-03-29T12:02:31.308Z,10.23
2019-03-29T12:05:13.758Z,9.67
2019-03-29T12:08:00.605Z,10.23
2019-03-29T12:10:48.146Z,12.23
2019-03-29T12:13:40.884Z,10.63
2019-03-29T12:16:24.369Z,13.23
2019-03-29T12:19:12.026Z,11.30
2019-03-29T12:21:59.906Z,10.53
2019-03-29T12:24:47.962Z,10.90
2019-03-29T12:27:35.002Z,11.67
2019-03-29T12:30:31.514Z,11.43
2019-03-29T12:33:11.614Z,12.13
2019-03-29T12:36:02.230Z,10.00
2019-03-29T12:38:50.130Z,11.40
2019-03-29T12:41:37.538Z,10.67
2019-03-29T12:44:24.686Z,11.23
2019-03-29T12:47:13.678Z,12.43
2019-03-29T12:50:01.066Z,11.33
2019-03-29T12:52:48.453Z,11.83
2019-03-29T12:55:35.291Z,10.43
2019-03-29T12:58:22.787Z,11.03
2019-03-29T13:01:10.674Z,12.70
2019-03-29T13:03:58.159Z,12.23
2019-03-29T13:06:45.596Z,13.70
2019-03-29T13:09:32.823Z,14.77
2019-03-29T13:12:19.738Z,12.33
2019-03-29T13:15:06.909Z,11.63
2019-03-29T13:17:53.986Z,11.57
2019-03-29T13:20:41.930Z,11.90
2019-03-29T13:23:28.975Z,11.60
2019-03-29T13:26:15.920Z,12.53
2019-03-29T13:29:05.129Z,12.93
2019-03-29T13:31:51.818Z,11.07
2019-03-29T13:34:38.713Z,11.77
2019-03-29T13:37:26.298Z,13.40
2019-03-29T13:40:13.382Z,11.73
2019-03-29T13:43:00.894Z,12.57
2019-03-29T13:45:48.372Z,11.80
2019-03-29T13:48:35.767Z,11.40
2019-03-29T13:51:22.182Z,10.87
2019-03-29T13:54:09.522Z,12.77
2019-03-29T13:56:56.894Z,11.73
2019-03-29T13:59:43.945Z,11.33
2019-03-29T14:02:31.351Z,11.33
2019-03-29T14:05:18.892Z,10.70
2019-03-29T14:08:06.075Z,10.83
2019-03-29T14:10:53.746Z,10.90
2019-03-29T14:13:40.886Z,9.77
2019-03-29T14:16:30.474Z,9.77
2019-03-29T14:19:17.599Z,9.33
2019-03-29T14:22:04.814Z,8.60
2019-03-29T14:24:54.092Z,9.03
2019-03-29T14:27:41.678Z,9.80
2019-03-29T14:30:28.542Z,10.10
2019-03-29T14:33:15.962Z,9.03
2019-03-29T14:36:03.339Z,10.00
2019-03-29T14:38:50.326Z,8.53
2019-03-29T14:41:37.365Z,7.53
2019-03-29T14:44:24.661Z,7.23
2019-03-29T14:47:11.993Z,6.70
2019-03-29T14:49:59.445Z,7.20
2019-03-29T14:52:46.178Z,6.83
2019-03-29T14:55:33.499Z,6.63
2019-03-29T14:58:21.088Z,6.77
2019-03-29T15:01:08.460Z,6.97
2019-03-29T15:03:55.817Z,6.60
2019-03-29T15:06:43.050Z,7.00
2019-03-29T15:09:30.602Z,8.23
2019-03-29T15:12:17.563Z,7.30
2019-03-29T15:15:06.346Z,6.70
2019-03-29T15:17:54.498Z,6.23
2019-03-29T15:20:52.777Z,6.33
2019-03-29T15:23:30.765Z,8.33
2019-03-29T15:26:17.715Z,6.27
2019-03-29T15:29:04.961Z,6.53
2019-03-29T15:31:52.284Z,6.63
2019-03-29T15:34:40.693Z,6.30
2019-03-29T15:37:27.606Z,6.63
2019-03-29T15:40:15.443Z,6.37
2019-03-29T15:43:02.391Z,6.70
2019-03-29T15:45:49.715Z,7.13
2019-03-29T15:48:36.615Z,7.40
2019-03-29T15:51:24.496Z,8.40
2019-03-29T15:54:11.914Z,7.00
2019-03-29T15:56:58.755Z,8.90
2019-03-29T15:59:46.023Z,8.03
2019-03-29T16:02:33.017Z,7.93
2019-03-29T16:05:20.431Z,7.67
2019-03-29T16:08:07.735Z,7.67
2019-03-29T16:10:54.915Z,7.67
2019-03-29T16:13:42.258Z,7.30
2019-03-29T16:16:29.191Z,7.13
2019-03-29T16:19:16.351Z,7.80
2019-03-29T16:22:05.899Z,9.37
2019-03-29T16:24:52.214Z,7.37
2019-03-29T16:27:39.443Z,8.83
2019-03-29T16:30:26.859Z,8.80
2019-03-29T16:33:14.265Z,9.00
2019-03-29T16:36:02.038Z,8.60
2019-03-29T16:38:49.205Z,10.53
2019-03-29T16:41:36.343Z,8.37
2019-03-29T16:44:23.418Z,8.13
2019-03-29T16:47:10.742Z,9.80
2019-03-29T16:49:57.939Z,7.93
2019-03-29T16:52:45.296Z,10.03
2019-03-29T16:55:32.488Z,10.30
2019-03-29T16:58:20.160Z,8.33
2019-03-29T17:01:08.256Z,8.53
2019-03-29T17:03:55.199Z,9.27
2019-03-29T17:06:42.375Z,9.50
2019-03-29T17:09:29.507Z,8.23
2019-03-29T17:12:16.443Z,8.60
2019-03-29T17:15:04.039Z,8.47
2019-03-29T17:17:51.383Z,8.93
2019-03-29T17:20:38.236Z,8.50
2019-03-29T17:23:25.080Z,9.60
2019-03-29T17:26:12.543Z,9.40
2019-03-29T17:28:59.668Z,10.83
2019-03-29T17:31:46.487Z,9.53
2019-03-29T17:34:33.462Z,9.67
2019-03-29T17:37:19.882Z,9.67
2019-03-29T17:40:07.954Z,9.77
2019-03-29T17:42:54.694Z,12.00
2019-03-29T17:45:41.812Z,11.37
2019-03-29T17:48:29.556Z,12.60
2019-03-29T17:51:17.043Z,12.80
2019-03-29T17:54:04.371Z,13.83
2019-03-29T17:56:51.701Z,13.20
2019-03-29T17:59:38.932Z,12.80
2019-03-29T18:02:25.854Z,14.00
2019-03-29T18:05:13.322Z,14.20
2019-03-29T18:08:00.647Z,14.27
2019-03-29T18:10:47.739Z,14.30
2019-03-29T18:13:35.264Z,14.97
2019-03-29T18:16:30.471Z,14.83
2019-03-29T18:19:11.672Z,16.63
2019-03-29T18:21:59.123Z,14.23
2019-03-29T18:24:46.338Z,13.70
2019-03-29T18:27:33.659Z,12.83
2019-03-29T18:30:38.083Z,16.70
2019-03-29T18:33:26.247Z,17.83
2019-03-29T18:36:12.850Z,19.13
2019-03-29T18:39:00.541Z,17.07
2019-03-29T18:41:47.323Z,18.53
2019-03-29T18:44:34.572Z,17.23
2019-03-29T18:47:22.077Z,19.47
2019-03-29T18:50:09.212Z,19.40
2019-03-29T18:52:56.536Z,20.37
2019-03-29T18:55:43.545Z,19.23
2019-03-29T18:58:30.692Z,19.63
2019-03-29T19:01:17.726Z,16.53
2019-03-29T19:04:04.141Z,19.80
2019-03-29T19:06:51.959Z,20.73
2019-03-29T19:09:39.853Z,19.30
2019-03-29T19:12:26.728Z,16.57
2019-03-29T19:15:14.010Z,20.57
2019-03-29T19:18:01.773Z,19.03
2019-03-29T19:20:48.986Z,19.20
2019-03-29T19:23:36.203Z,17.93
2019-03-29T19:26:23.350Z,20.37
2019-03-29T19:29:10.904Z,16.73
2019-03-29T19:31:58.080Z,20.00
2019-03-29T19:34:45.418Z,21.87
2019-03-29T19:37:32.737Z,26.10
2019-03-29T19:40:20.248Z,24.77
2019-03-29T19:43:07.560Z,26.20
2019-03-29T19:45:54.835Z,24.47
2019-03-29T19:48:41.998Z,23.63
2019-03-29T19:51:29.360Z,20.27
2019-03-29T19:54:16.506Z,18.23
2019-03-29T19:57:05.338Z,23.53
2019-03-29T19:59:52.345Z,23.97
2019-03-29T20:02:39.174Z,23.60
2019-03-29T20:05:27.891Z,23.83
2019-03-29T20:08:15.144Z,19.03
2019-03-29T20:11:02.519Z,18.50
2019-03-29T20:13:50.248Z,18.57
2019-03-29T20:16:37.361Z,19.00
2019-03-29T20:19:24.832Z,19.67
2019-03-29T20:22:12.467Z,19.93
2019-03-29T20:24:59.599Z,20.07
2019-03-29T20:27:46.773Z,21.70
2019-03-29T20:30:34.208Z,22.03
2019-03-29T20:33:21.491Z,20.03
2019-03-29T20:36:08.736Z,22.13
2019-03-29T20:38:55.911Z,21.93
2019-03-29T20:41:42.656Z,23.30
2019-03-29T20:44:29.916Z,24.80
2019-03-29T20:47:17.010Z,25.77
2019-03-29T20:50:04.414Z,24.83
2019-03-29T20:52:51.839Z,24.07
2019-03-29T20:55:39.127Z,24.30
2019-03-29T20:58:28.021Z,24.17
2019-03-29T21:01:15.091Z,21.67
2019-03-29T21:04:03.076Z,21.47
2019-03-29T21:06:50.048Z,24.00
2019-03-29T21:09:37.307Z,23.40
2019-03-29T21:12:28.469Z,20.93
2019-03-29T21:15:16.602Z,22.20
2019-03-29T21:18:03.558Z,25.00
2019-03-29T21:20:50.788Z,21.10
2019-03-29T21:23:37.809Z,20.37
2019-03-29T21:26:25.871Z,19.03
2019-03-29T21:29:12.856Z,24.30
2019-03-29T21:31:59.974Z,19.83
2019-03-29T21:34:46.684Z,20.97
2019-03-29T21:37:33.903Z,22.53
2019-03-29T21:40:24.634Z,22.80
2019-03-29T21:43:12.104Z,24.03
2019-03-29T21:45:59.062Z,21.73
2019-03-29T21:48:46.798Z,23.03
2019-03-29T21:51:34.051Z,20.70
2019-03-29T21:54:21.275Z,19.63
2019-03-29T21:57:09.010Z,21.33
2019-03-29T21:59:57.362Z,38.90
2019-03-29T22:02:44.560Z,31.70
2019-03-29T22:05:31.671Z,29.03
2019-03-29T22:08:19.128Z,23.87
2019-03-29T22:11:06.488Z,26.93
2019-03-29T22:13:53.530Z,22.83
2019-03-29T22:16:40.713Z,21.90
2019-03-29T22:19:27.936Z,23.30
2019-03-29T22:22:15.260Z,19.10
2019-03-29T22:25:01.964Z,22.33
2019-03-29T22:27:49.172Z,22.90
2019-03-29T22:30:36.323Z,22.33
2019-03-29T22:33:23.980Z,23.07
2019-03-29T22:36:11.492Z,22.57
2019-03-29T22:38:58.820Z,23.30
2019-03-29T22:41:45.940Z,23.47
2019-03-29T22:44:33.790Z,19.67
2019-03-29T22:47:20.593Z,24.50
2019-03-29T22:50:08.517Z,20.17
2019-03-29T22:52:56.156Z,23.97
2019-03-29T22:55:43.364Z,29.70
2019-03-29T22:58:30.077Z,29.53
2019-03-29T23:01:18.335Z,44.60
2019-03-29T23:04:04.831Z,37.87
2019-03-29T23:06:51.777Z,46.83
2019-03-29T23:09:38.880Z,49.87
2019-03-29T23:12:26.406Z,35.77
2019-03-29T23:15:13.773Z,27.27
2019-03-29T23:18:00.684Z,27.17
2019-03-29T23:20:47.887Z,20.33
2019-03-29T23:23:34.842Z,22.30
2019-03-29T23:26:22.290Z,24.57
2019-03-29T23:29:09.883Z,45.87
2019-03-29T23:31:56.921Z,57.50
2019-03-29T23:34:43.985Z,34.90
2019-03-29T23:37:31.173Z,49.70
2019-03-29T23:40:18.641Z,40.73
2019-03-29T23:43:05.841Z,25.37
2019-03-29T23:45:52.856Z,20.13
2019-03-29T23:48:39.992Z,21.23
2019-03-29T23:51:27.614Z,22.63
2019-03-29T23:54:14.844Z,19.20
2019-03-29T23:57:01.675Z,21.07
2019-03-29T23:59:49.501Z,20.80
